sensor_id;sensor_type;location;lat;lon;timestamp;temperature;humidity
14170;DHT22;63889;50.596;8.690;2023-03-29T00:00:58;8.00;99.90
14170;DHT22;63889;50.596;8.690;2023-03-29T00:03:25;7.90;99.90
14170;DHT22;63889;50.596;8.690;2023-03-29T00:05:50;7.80;99.90
14170;DHT22;63889;50.596;8.690;2023-03-29T00:08:22;7.70;99.90
14170;DHT22;63889;50.596;8.690;2023-03-29T00:10:48;7.50;99.90
14170;DHT22;63889;50.596;8.690;2023-03-29T00:13:13;7.30;99.90
14170;DHT22;63889;50.596;8.690;2023-03-29T00:15:40;7.20;99.90
14170;DHT22;63889;50.596;8.690;2023-03-29T00:18:06;7.20;99.90
14170;DHT22;63889;50.596;8.690;2023-03-29T00:20:32;7.40;99.90
14170;DHT22;63889;50.596;8.690;2023-03-29T00:22:57;7.60;99.90
14170;DHT22;63889;50.596;8.690;2023-03-29T00:25:23;7.70;99.90
14170;DHT22;63889;50.596;8.690;2023-03-29T00:27:49;7.80;99.90
14170;DHT22;63889;50.596;8.690;2023-03-29T00:30:14;7.70;99.90
14170;DHT22;63889;50.596;8.690;2023-03-29T00:32:40;7.50;99.90
14170;DHT22;63889;50.596;8.690;2023-03-29T00:35:06;7.50;99.90
14170;DHT22;63889;50.596;8.690;2023-03-29T00:37:33;7.40;99.90
14170;DHT22;63889;50.596;8.690;2023-03-29T00:39:59;7.50;99.90
14170;DHT22;63889;50.596;8.690;2023-03-29T00:42:25;7.50;99.90
14170;DHT22;63889;50.596;8.690;2023-03-29T00:47:52;7.50;99.90
14170;DHT22;63889;50.596;8.690;2023-03-29T00:50:29;7.50;99.90
14170;DHT22;63889;50.596;8.690;2023-03-29T00:53:09;7.60;99.90
14170;DHT22;63889;50.596;8.690;2023-03-29T00:55:50;7.60;99.90
14170;DHT22;63889;50.596;8.690;2023-03-29T00:58:22;7.50;99.90
14170;DHT22;63889;50.596;8.690;2023-03-29T01:00:58;7.60;99.90
14170;DHT22;63889;50.596;8.690;2023-03-29T01:03:29;7.60;99.90
14170;DHT22;63889;50.596;8.690;2023-03-29T01:06:00;7.60;99.90
14170;DHT22;63889;50.596;8.690;2023-03-29T01:08:38;7.60;99.90
14170;DHT22;63889;50.596;8.690;2023-03-29T01:11:28;7.60;99.90
14170;DHT22;63889;50.596;8.690;2023-03-29T01:14:00;7.60;99.90
14170;DHT22;63889;50.596;8.690;2023-03-29T01:16:27;7.60;99.90
14170;DHT22;63889;50.596;8.690;2023-03-29T01:18:53;7.60;99.90
14170;DHT22;63889;50.596;8.690;2023-03-29T01:21:29;7.70;99.90
14170;DHT22;63889;50.596;8.690;2023-03-29T01:24:29;7.70;99.90
14170;DHT22;63889;50.596;8.690;2023-03-29T01:30:13;7.50;99.90
14170;DHT22;63889;50.596;8.690;2023-03-29T01:32:48;7.50;99.90
14170;DHT22;63889;50.596;8.690;2023-03-29T01:38:03;7.50;99.90
14170;DHT22;63889;50.596;8.690;2023-03-29T01:40:32;7.40;99.90
14170;DHT22;63889;50.596;8.690;2023-03-29T01:43:24;7.40;99.90
14170;DHT22;63889;50.596;8.690;2023-03-29T01:46:02;7.40;99.90
14170;DHT22;63889;50.596;8.690;2023-03-29T01:48:50;7.50;99.90
14170;DHT22;63889;50.596;8.690;2023-03-29T01:51:30;7.40;99.90
14170;DHT22;63889;50.596;8.690;2023-03-29T01:54:06;7.50;99.90
14170;DHT22;63889;50.596;8.690;2023-03-29T01:56:37;7.60;99.90
14170;DHT22;63889;50.596;8.690;2023-03-29T01:59:07;7.70;99.90
14170;DHT22;63889;50.596;8.690;2023-03-29T02:01:38;7.80;99.90
14170;DHT22;63889;50.596;8.690;2023-03-29T02:04:11;7.80;99.90
14170;DHT22;63889;50.596;8.690;2023-03-29T02:06:38;7.70;99.90
14170;DHT22;63889;50.596;8.690;2023-03-29T02:09:05;7.50;99.90
14170;DHT22;63889;50.596;8.690;2023-03-29T02:11:32;7.50;99.90
14170;DHT22;63889;50.596;8.690;2023-03-29T02:13:59;7.60;99.90
14170;DHT22;63889;50.596;8.690;2023-03-29T02:16:25;7.60;99.90
14170;DHT22;63889;50.596;8.690;2023-03-29T02:18:52;7.50;99.90
14170;DHT22;63889;50.596;8.690;2023-03-29T02:21:36;7.60;99.90
14170;DHT22;63889;50.596;8.690;2023-03-29T02:24:05;7.70;99.90
14170;DHT22;63889;50.596;8.690;2023-03-29T02:26:31;7.80;99.90
14170;DHT22;63889;50.596;8.690;2023-03-29T02:28:57;7.70;99.90
14170;DHT22;63889;50.596;8.690;2023-03-29T02:31:35;7.80;99.90
14170;DHT22;63889;50.596;8.690;2023-03-29T02:34:07;7.70;99.90
14170;DHT22;63889;50.596;8.690;2023-03-29T02:36:45;7.70;99.90
14170;DHT22;63889;50.596;8.690;2023-03-29T02:39:13;7.80;99.90
14170;DHT22;63889;50.596;8.690;2023-03-29T02:41:41;7.80;99.90
14170;DHT22;63889;50.596;8.690;2023-03-29T02:44:10;7.80;99.90
14170;DHT22;63889;50.596;8.690;2023-03-29T02:46:38;7.90;99.90
14170;DHT22;63889;50.596;8.690;2023-03-29T02:49:07;8.00;99.90
14170;DHT22;63889;50.596;8.690;2023-03-29T02:51:35;8.00;99.90
14170;DHT22;63889;50.596;8.690;2023-03-29T02:54:05;7.90;99.90
14170;DHT22;63889;50.596;8.690;2023-03-29T02:56:54;8.00;99.90
14170;DHT22;63889;50.596;8.690;2023-03-29T02:59:20;8.10;99.90
14170;DHT22;63889;50.596;8.690;2023-03-29T03:01:47;8.10;99.90
14170;DHT22;63889;50.596;8.690;2023-03-29T03:04:13;8.00;99.90
14170;DHT22;63889;50.596;8.690;2023-03-29T03:06:39;8.10;99.90
14170;DHT22;63889;50.596;8.690;2023-03-29T03:09:04;7.80;99.90
14170;DHT22;63889;50.596;8.690;2023-03-29T03:11:31;7.80;99.90
14170;DHT22;63889;50.596;8.690;2023-03-29T03:13:56;7.80;99.90
14170;DHT22;63889;50.596;8.690;2023-03-29T03:16:22;7.70;99.90
14170;DHT22;63889;50.596;8.690;2023-03-29T03:18:48;7.70;99.90
14170;DHT22;63889;50.596;8.690;2023-03-29T03:21:18;7.70;99.90
14170;DHT22;63889;50.596;8.690;2023-03-29T03:23:47;7.70;99.90
14170;DHT22;63889;50.596;8.690;2023-03-29T03:26:14;7.60;99.90
14170;DHT22;63889;50.596;8.690;2023-03-29T03:28:41;7.60;99.90
14170;DHT22;63889;50.596;8.690;2023-03-29T03:31:06;7.50;99.90
14170;DHT22;63889;50.596;8.690;2023-03-29T03:33:32;7.30;99.90
14170;DHT22;63889;50.596;8.690;2023-03-29T03:35:58;7.30;99.90
14170;DHT22;63889;50.596;8.690;2023-03-29T03:38:30;7.40;99.90
14170;DHT22;63889;50.596;8.690;2023-03-29T03:40:57;7.40;99.90
14170;DHT22;63889;50.596;8.690;2023-03-29T03:43:23;7.50;99.90
14170;DHT22;63889;50.596;8.690;2023-03-29T03:45:49;7.60;99.90
14170;DHT22;63889;50.596;8.690;2023-03-29T03:48:15;7.70;99.90
14170;DHT22;63889;50.596;8.690;2023-03-29T03:50:45;7.70;99.90
14170;DHT22;63889;50.596;8.690;2023-03-29T03:53:12;7.80;99.90
14170;DHT22;63889;50.596;8.690;2023-03-29T03:55:37;7.70;99.90
14170;DHT22;63889;50.596;8.690;2023-03-29T03:58:03;7.70;99.90
14170;DHT22;63889;50.596;8.690;2023-03-29T04:00:29;7.60;99.90
14170;DHT22;63889;50.596;8.690;2023-03-29T04:02:55;7.40;99.90
14170;DHT22;63889;50.596;8.690;2023-03-29T04:05:20;7.10;99.90
14170;DHT22;63889;50.596;8.690;2023-03-29T04:07:46;7.10;99.90
14170;DHT22;63889;50.596;8.690;2023-03-29T04:10:12;7.20;99.90
14170;DHT22;63889;50.596;8.690;2023-03-29T04:12:38;7.30;99.90
14170;DHT22;63889;50.596;8.690;2023-03-29T04:15:05;7.30;99.90
14170;DHT22;63889;50.596;8.690;2023-03-29T04:17:31;7.20;99.90
14170;DHT22;63889;50.596;8.690;2023-03-29T04:19:56;7.00;99.90
14170;DHT22;63889;50.596;8.690;2023-03-29T04:22:23;7.10;99.90
14170;DHT22;63889;50.596;8.690;2023-03-29T04:24:50;7.20;99.90
14170;DHT22;63889;50.596;8.690;2023-03-29T04:27:16;7.30;99.90
14170;DHT22;63889;50.596;8.690;2023-03-29T04:29:41;7.00;99.90
14170;DHT22;63889;50.596;8.690;2023-03-29T04:32:09;6.80;99.90
14170;DHT22;63889;50.596;8.690;2023-03-29T04:34:36;6.80;99.90
14170;DHT22;63889;50.596;8.690;2023-03-29T04:37:01;6.80;99.90
14170;DHT22;63889;50.596;8.690;2023-03-29T04:39:27;6.80;99.90
14170;DHT22;63889;50.596;8.690;2023-03-29T04:41:58;6.90;99.90
14170;DHT22;63889;50.596;8.690;2023-03-29T04:44:24;6.70;99.90
14170;DHT22;63889;50.596;8.690;2023-03-29T04:46:51;6.70;99.90
14170;DHT22;63889;50.596;8.690;2023-03-29T04:49:16;6.90;99.90
14170;DHT22;63889;50.596;8.690;2023-03-29T04:51:42;6.90;99.90
14170;DHT22;63889;50.596;8.690;2023-03-29T04:54:18;6.90;99.90
14170;DHT22;63889;50.596;8.690;2023-03-29T04:56:44;7.00;99.90
14170;DHT22;63889;50.596;8.690;2023-03-29T04:59:09;7.00;99.90
14170;DHT22;63889;50.596;8.690;2023-03-29T05:01:35;7.00;99.90
14170;DHT22;63889;50.596;8.690;2023-03-29T05:04:01;6.90;99.90
14170;DHT22;63889;50.596;8.690;2023-03-29T05:06:27;6.80;99.90
14170;DHT22;63889;50.596;8.690;2023-03-29T05:08:53;6.80;99.90
14170;DHT22;63889;50.596;8.690;2023-03-29T05:11:19;6.80;99.90
14170;DHT22;63889;50.596;8.690;2023-03-29T05:13:45;6.90;99.90
14170;DHT22;63889;50.596;8.690;2023-03-29T05:16:11;6.90;99.90
14170;DHT22;63889;50.596;8.690;2023-03-29T05:18:37;6.90;99.90
14170;DHT22;63889;50.596;8.690;2023-03-29T05:21:02;6.90;99.90
14170;DHT22;63889;50.596;8.690;2023-03-29T05:23:28;7.00;99.90
14170;DHT22;63889;50.596;8.690;2023-03-29T05:25:54;6.90;99.90
14170;DHT22;63889;50.596;8.690;2023-03-29T05:28:20;6.80;99.90
14170;DHT22;63889;50.596;8.690;2023-03-29T05:30:46;6.80;99.90
14170;DHT22;63889;50.596;8.690;2023-03-29T05:33:13;6.70;99.90
14170;DHT22;63889;50.596;8.690;2023-03-29T05:35:38;6.80;99.90
14170;DHT22;63889;50.596;8.690;2023-03-29T05:38:04;6.90;99.90
14170;DHT22;63889;50.596;8.690;2023-03-29T05:40:31;6.90;99.90
14170;DHT22;63889;50.596;8.690;2023-03-29T05:42:57;7.00;99.90
14170;DHT22;63889;50.596;8.690;2023-03-29T05:45:24;7.10;99.90
14170;DHT22;63889;50.596;8.690;2023-03-29T05:47:52;7.00;99.90
14170;DHT22;63889;50.596;8.690;2023-03-29T05:50:18;7.30;99.90
14170;DHT22;63889;50.596;8.690;2023-03-29T05:52:44;7.30;99.90
14170;DHT22;63889;50.596;8.690;2023-03-29T05:55:10;7.40;99.90
14170;DHT22;63889;50.596;8.690;2023-03-29T05:57:35;7.40;99.90
14170;DHT22;63889;50.596;8.690;2023-03-29T06:00:05;7.30;99.90
14170;DHT22;63889;50.596;8.690;2023-03-29T06:02:51;7.30;99.90
14170;DHT22;63889;50.596;8.690;2023-03-29T06:05:18;7.40;99.90
14170;DHT22;63889;50.596;8.690;2023-03-29T06:07:44;7.40;99.90
14170;DHT22;63889;50.596;8.690;2023-03-29T06:10:10;7.20;99.90
14170;DHT22;63889;50.596;8.690;2023-03-29T06:12:36;7.30;99.90
14170;DHT22;63889;50.596;8.690;2023-03-29T06:15:03;7.50;99.90
14170;DHT22;63889;50.596;8.690;2023-03-29T06:17:29;7.50;99.90
14170;DHT22;63889;50.596;8.690;2023-03-29T06:19:55;7.60;99.90
14170;DHT22;63889;50.596;8.690;2023-03-29T06:22:22;7.60;99.90
14170;DHT22;63889;50.596;8.690;2023-03-29T06:24:47;7.60;99.90
14170;DHT22;63889;50.596;8.690;2023-03-29T06:27:13;7.80;99.90
14170;DHT22;63889;50.596;8.690;2023-03-29T06:29:39;7.80;99.90
14170;DHT22;63889;50.596;8.690;2023-03-29T06:32:05;7.90;99.90
14170;DHT22;63889;50.596;8.690;2023-03-29T06:34:32;7.90;99.90
14170;DHT22;63889;50.596;8.690;2023-03-29T06:36:58;7.90;99.90
14170;DHT22;63889;50.596;8.690;2023-03-29T06:39:24;7.90;99.90
14170;DHT22;63889;50.596;8.690;2023-03-29T06:41:51;8.00;99.90
14170;DHT22;63889;50.596;8.690;2023-03-29T06:44:16;8.00;99.90
14170;DHT22;63889;50.596;8.690;2023-03-29T06:46:42;7.90;99.90
14170;DHT22;63889;50.596;8.690;2023-03-29T06:49:08;8.00;99.90
14170;DHT22;63889;50.596;8.690;2023-03-29T06:51:34;8.10;99.90
14170;DHT22;63889;50.596;8.690;2023-03-29T06:54:00;8.10;99.90
14170;DHT22;63889;50.596;8.690;2023-03-29T06:56:26;8.00;99.90
14170;DHT22;63889;50.596;8.690;2023-03-29T06:58:54;7.90;99.90
14170;DHT22;63889;50.596;8.690;2023-03-29T07:01:19;8.00;99.90
14170;DHT22;63889;50.596;8.690;2023-03-29T07:03:45;7.90;99.90
14170;DHT22;63889;50.596;8.690;2023-03-29T07:06:11;7.90;99.90
14170;DHT22;63889;50.596;8.690;2023-03-29T07:08:39;8.00;99.90
14170;DHT22;63889;50.596;8.690;2023-03-29T07:11:09;8.10;99.90
14170;DHT22;63889;50.596;8.690;2023-03-29T07:13:40;8.20;99.90
14170;DHT22;63889;50.596;8.690;2023-03-29T07:16:11;8.10;99.90
14170;DHT22;63889;50.596;8.690;2023-03-29T07:18:41;8.30;99.90
14170;DHT22;63889;50.596;8.690;2023-03-29T07:21:08;8.40;99.90
14170;DHT22;63889;50.596;8.690;2023-03-29T07:23:35;8.50;99.90
14170;DHT22;63889;50.596;8.690;2023-03-29T07:26:00;8.40;99.90
14170;DHT22;63889;50.596;8.690;2023-03-29T07:28:26;8.50;99.90
14170;DHT22;63889;50.596;8.690;2023-03-29T07:30:52;8.60;99.90
14170;DHT22;63889;50.596;8.690;2023-03-29T07:33:19;8.70;99.90
14170;DHT22;63889;50.596;8.690;2023-03-29T07:35:45;8.70;99.90
14170;DHT22;63889;50.596;8.690;2023-03-29T07:38:12;8.60;99.90
14170;DHT22;63889;50.596;8.690;2023-03-29T07:40:39;8.70;99.90
14170;DHT22;63889;50.596;8.690;2023-03-29T07:43:05;8.70;99.90
14170;DHT22;63889;50.596;8.690;2023-03-29T07:45:33;8.80;99.90
14170;DHT22;63889;50.596;8.690;2023-03-29T07:47:59;8.70;99.90
14170;DHT22;63889;50.596;8.690;2023-03-29T07:50:25;8.90;99.90
14170;DHT22;63889;50.596;8.690;2023-03-29T07:52:51;8.90;99.90
14170;DHT22;63889;50.596;8.690;2023-03-29T07:55:17;8.90;99.90
14170;DHT22;63889;50.596;8.690;2023-03-29T07:57:42;8.80;99.90
14170;DHT22;63889;50.596;8.690;2023-03-29T08:00:10;8.90;99.90
14170;DHT22;63889;50.596;8.690;2023-03-29T08:02:48;8.90;99.90
14170;DHT22;63889;50.596;8.690;2023-03-29T08:05:16;8.90;99.90
14170;DHT22;63889;50.596;8.690;2023-03-29T08:07:43;8.90;99.90
14170;DHT22;63889;50.596;8.690;2023-03-29T08:10:19;9.10;99.90
14170;DHT22;63889;50.596;8.690;2023-03-29T08:12:46;9.20;99.90
14170;DHT22;63889;50.596;8.690;2023-03-29T08:15:13;9.30;99.90
14170;DHT22;63889;50.596;8.690;2023-03-29T08:17:39;9.20;99.90
14170;DHT22;63889;50.596;8.690;2023-03-29T08:20:07;9.40;99.90
14170;DHT22;63889;50.596;8.690;2023-03-29T08:22:34;9.40;99.90
14170;DHT22;63889;50.596;8.690;2023-03-29T08:24:59;9.40;99.90
14170;DHT22;63889;50.596;8.690;2023-03-29T08:27:26;9.40;99.90
14170;DHT22;63889;50.596;8.690;2023-03-29T08:29:51;9.40;99.90
14170;DHT22;63889;50.596;8.690;2023-03-29T08:32:17;9.40;99.90
14170;DHT22;63889;50.596;8.690;2023-03-29T08:34:42;9.60;99.90
14170;DHT22;63889;50.596;8.690;2023-03-29T08:37:08;9.60;99.90
14170;DHT22;63889;50.596;8.690;2023-03-29T08:39:34;9.70;99.90
14170;DHT22;63889;50.596;8.690;2023-03-29T08:42:15;9.70;99.90
14170;DHT22;63889;50.596;8.690;2023-03-29T08:45:00;9.60;99.90
14170;DHT22;63889;50.596;8.690;2023-03-29T08:47:28;9.60;99.90
14170;DHT22;63889;50.596;8.690;2023-03-29T08:49:58;9.50;99.90
14170;DHT22;63889;50.596;8.690;2023-03-29T08:52:30;9.40;99.90
14170;DHT22;63889;50.596;8.690;2023-03-29T08:54:57;9.40;99.90
14170;DHT22;63889;50.596;8.690;2023-03-29T08:57:28;9.60;99.90
14170;DHT22;63889;50.596;8.690;2023-03-29T08:59:56;9.50;99.90
14170;DHT22;63889;50.596;8.690;2023-03-29T09:02:25;9.40;99.90
14170;DHT22;63889;50.596;8.690;2023-03-29T09:04:56;9.40;99.90
14170;DHT22;63889;50.596;8.690;2023-03-29T09:07:24;9.80;99.90
14170;DHT22;63889;50.596;8.690;2023-03-29T09:09:50;9.90;99.90
14170;DHT22;63889;50.596;8.690;2023-03-29T09:20:28;9.90;99.90
14170;DHT22;63889;50.596;8.690;2023-03-29T09:23:01;9.70;99.90
14170;DHT22;63889;50.596;8.690;2023-03-29T09:28:25;9.50;99.90
14170;DHT22;63889;50.596;8.690;2023-03-29T09:33:25;9.70;99.90
14170;DHT22;63889;50.596;8.690;2023-03-29T09:36:03;9.60;99.90
14170;DHT22;63889;50.596;8.690;2023-03-29T09:38:30;9.70;99.90
14170;DHT22;63889;50.596;8.690;2023-03-29T09:41:06;10.10;99.90
14170;DHT22;63889;50.596;8.690;2023-03-29T09:43:40;10.00;99.90
14170;DHT22;63889;50.596;8.690;2023-03-29T09:46:15;9.90;99.90
14170;DHT22;63889;50.596;8.690;2023-03-29T09:48:42;9.90;99.90
14170;DHT22;63889;50.596;8.690;2023-03-29T09:51:09;10.00;99.90
14170;DHT22;63889;50.596;8.690;2023-03-29T09:53:36;10.20;99.90
14170;DHT22;63889;50.596;8.690;2023-03-29T09:56:01;10.50;99.90
14170;DHT22;63889;50.596;8.690;2023-03-29T09:58:29;10.90;99.90
14170;DHT22;63889;50.596;8.690;2023-03-29T10:00:59;10.90;99.90
14170;DHT22;63889;50.596;8.690;2023-03-29T10:03:30;10.90;99.90
14170;DHT22;63889;50.596;8.690;2023-03-29T10:05:58;11.10;99.90
14170;DHT22;63889;50.596;8.690;2023-03-29T10:10:51;11.10;99.90
14170;DHT22;63889;50.596;8.690;2023-03-29T10:13:25;11.30;99.90
14170;DHT22;63889;50.596;8.690;2023-03-29T10:16:01;11.20;99.90
14170;DHT22;63889;50.596;8.690;2023-03-29T10:18:29;11.30;99.90
14170;DHT22;63889;50.596;8.690;2023-03-29T10:21:01;11.40;99.90
14170;DHT22;63889;50.596;8.690;2023-03-29T10:23:36;11.70;99.90
14170;DHT22;63889;50.596;8.690;2023-03-29T10:26:06;11.90;99.90
14170;DHT22;63889;50.596;8.690;2023-03-29T10:28:35;12.00;99.90
14170;DHT22;63889;50.596;8.690;2023-03-29T10:31:01;11.90;99.90
14170;DHT22;63889;50.596;8.690;2023-03-29T10:33:33;12.10;99.90
14170;DHT22;63889;50.596;8.690;2023-03-29T10:36:02;12.30;99.90
14170;DHT22;63889;50.596;8.690;2023-03-29T10:38:29;12.40;99.90
14170;DHT22;63889;50.596;8.690;2023-03-29T10:41:03;12.50;99.90
14170;DHT22;63889;50.596;8.690;2023-03-29T10:43:38;12.50;99.90
14170;DHT22;63889;50.596;8.690;2023-03-29T10:46:27;12.60;99.90
14170;DHT22;63889;50.596;8.690;2023-03-29T10:48:58;12.50;99.90
14170;DHT22;63889;50.596;8.690;2023-03-29T10:51:27;12.50;99.90
14170;DHT22;63889;50.596;8.690;2023-03-29T10:53:56;12.70;99.90
14170;DHT22;63889;50.596;8.690;2023-03-29T11:07:33;12.80;99.90
14170;DHT22;63889;50.596;8.690;2023-03-29T11:24:17;13.30;99.90
14170;DHT22;63889;50.596;8.690;2023-03-29T11:29:30;13.10;99.90
14170;DHT22;63889;50.596;8.690;2023-03-29T11:34:49;12.80;99.90
14170;DHT22;63889;50.596;8.690;2023-03-29T11:42:27;12.70;99.90
14170;DHT22;63889;50.596;8.690;2023-03-29T11:44:57;12.80;99.90
14170;DHT22;63889;50.596;8.690;2023-03-29T11:47:28;13.00;99.90
14170;DHT22;63889;50.596;8.690;2023-03-29T11:49:58;13.10;99.90
14170;DHT22;63889;50.596;8.690;2023-03-29T11:55:08;13.20;99.90
14170;DHT22;63889;50.596;8.690;2023-03-29T11:57:49;13.10;99.90
14170;DHT22;63889;50.596;8.690;2023-03-29T12:00:28;13.20;99.90
14170;DHT22;63889;50.596;8.690;2023-03-29T12:03:11;13.00;99.90
14170;DHT22;63889;50.596;8.690;2023-03-29T12:05:49;12.80;99.90
14170;DHT22;63889;50.596;8.690;2023-03-29T12:08:28;13.10;99.90
14170;DHT22;63889;50.596;8.690;2023-03-29T12:16:24;13.60;99.90
14170;DHT22;63889;50.596;8.690;2023-03-29T12:18:56;13.60;99.90
14170;DHT22;63889;50.596;8.690;2023-03-29T12:21:25;13.70;99.90
14170;DHT22;63889;50.596;8.690;2023-03-29T12:23:53;13.70;99.90
14170;DHT22;63889;50.596;8.690;2023-03-29T12:26:48;13.80;99.90
14170;DHT22;63889;50.596;8.690;2023-03-29T12:35:26;14.00;99.90
14170;DHT22;63889;50.596;8.690;2023-03-29T12:38:20;14.30;99.90
14170;DHT22;63889;50.596;8.690;2023-03-29T12:40:52;15.50;99.90
14170;DHT22;63889;50.596;8.690;2023-03-29T12:43:29;16.90;99.90
14170;DHT22;63889;50.596;8.690;2023-03-29T12:46:06;17.40;99.90
14170;DHT22;63889;50.596;8.690;2023-03-29T12:48:32;17.40;99.90
14170;DHT22;63889;50.596;8.690;2023-03-29T12:51:03;16.60;99.90
14170;DHT22;63889;50.596;8.690;2023-03-29T12:53:48;15.60;99.90
14170;DHT22;63889;50.596;8.690;2023-03-29T12:56:19;14.80;99.90
14170;DHT22;63889;50.596;8.690;2023-03-29T12:59:16;14.80;99.90
14170;DHT22;63889;50.596;8.690;2023-03-29T13:01:58;15.00;99.90
14170;DHT22;63889;50.596;8.690;2023-03-29T13:04:48;15.10;99.90
14170;DHT22;63889;50.596;8.690;2023-03-29T13:07:28;15.00;99.90
14170;DHT22;63889;50.596;8.690;2023-03-29T13:10:08;15.70;99.90
14170;DHT22;63889;50.596;8.690;2023-03-29T13:12:47;16.00;99.90
14170;DHT22;63889;50.596;8.690;2023-03-29T13:20:57;16.50;99.90
14170;DHT22;63889;50.596;8.690;2023-03-29T13:23:43;16.60;99.90
14170;DHT22;63889;50.596;8.690;2023-03-29T13:31:40;17.70;99.90
14170;DHT22;63889;50.596;8.690;2023-03-29T13:34:32;17.90;99.90
14170;DHT22;63889;50.596;8.690;2023-03-29T13:39:50;18.10;99.90
14170;DHT22;63889;50.596;8.690;2023-03-29T13:42:36;18.10;99.90
14170;DHT22;63889;50.596;8.690;2023-03-29T13:45:26;18.40;99.90
14170;DHT22;63889;50.596;8.690;2023-03-29T13:48:00;18.30;99.90
14170;DHT22;63889;50.596;8.690;2023-03-29T13:50:56;18.00;99.90
14170;DHT22;63889;50.596;8.690;2023-03-29T13:56:23;16.80;99.90
14170;DHT22;63889;50.596;8.690;2023-03-29T13:59:04;16.70;99.90
14170;DHT22;63889;50.596;8.690;2023-03-29T14:01:55;16.60;99.90
14170;DHT22;63889;50.596;8.690;2023-03-29T14:04:29;16.40;99.90
14170;DHT22;63889;50.596;8.690;2023-03-29T14:06:56;15.90;99.90
14170;DHT22;63889;50.596;8.690;2023-03-29T14:09:28;15.60;99.90
14170;DHT22;63889;50.596;8.690;2023-03-29T14:11:55;15.30;99.90
14170;DHT22;63889;50.596;8.690;2023-03-29T14:14:24;15.20;99.90
14170;DHT22;63889;50.596;8.690;2023-03-29T14:16:50;15.20;99.90
14170;DHT22;63889;50.596;8.690;2023-03-29T14:19:29;15.00;99.90
14170;DHT22;63889;50.596;8.690;2023-03-29T14:21:56;15.00;99.90
14170;DHT22;63889;50.596;8.690;2023-03-29T14:24:26;14.90;99.90
14170;DHT22;63889;50.596;8.690;2023-03-29T14:26:53;15.00;99.90
14170;DHT22;63889;50.596;8.690;2023-03-29T14:29:19;15.40;99.90
14170;DHT22;63889;50.596;8.690;2023-03-29T14:31:45;15.50;99.90
14170;DHT22;63889;50.596;8.690;2023-03-29T14:34:13;15.30;99.90
14170;DHT22;63889;50.596;8.690;2023-03-29T14:36:39;15.00;99.90
14170;DHT22;63889;50.596;8.690;2023-03-29T14:39:15;15.20;99.90
14170;DHT22;63889;50.596;8.690;2023-03-29T14:41:49;15.50;99.90
14170;DHT22;63889;50.596;8.690;2023-03-29T14:44:17;15.60;99.90
14170;DHT22;63889;50.596;8.690;2023-03-29T14:46:44;15.60;99.90
14170;DHT22;63889;50.596;8.690;2023-03-29T14:49:14;15.60;99.90
14170;DHT22;63889;50.596;8.690;2023-03-29T14:51:40;15.60;99.90
14170;DHT22;63889;50.596;8.690;2023-03-29T14:54:06;15.70;99.90
14170;DHT22;63889;50.596;8.690;2023-03-29T14:56:34;15.90;99.90
14170;DHT22;63889;50.596;8.690;2023-03-29T14:59:02;15.90;99.90
14170;DHT22;63889;50.596;8.690;2023-03-29T15:01:28;16.00;99.90
14170;DHT22;63889;50.596;8.690;2023-03-29T15:04:00;16.00;99.90
14170;DHT22;63889;50.596;8.690;2023-03-29T15:06:27;16.00;99.90
14170;DHT22;63889;50.596;8.690;2023-03-29T15:08:55;16.00;99.90
14170;DHT22;63889;50.596;8.690;2023-03-29T15:11:24;16.10;99.90
14170;DHT22;63889;50.596;8.690;2023-03-29T15:14:02;16.10;99.90
14170;DHT22;63889;50.596;8.690;2023-03-29T15:16:28;16.00;99.90
14170;DHT22;63889;50.596;8.690;2023-03-29T15:18:55;16.10;99.90
14170;DHT22;63889;50.596;8.690;2023-03-29T15:21:21;16.00;99.90
14170;DHT22;63889;50.596;8.690;2023-03-29T15:23:56;16.20;99.90
14170;DHT22;63889;50.596;8.690;2023-03-29T15:28:53;16.20;99.90
14170;DHT22;63889;50.596;8.690;2023-03-29T15:31:31;16.10;99.90
14170;DHT22;63889;50.596;8.690;2023-03-29T15:34:09;16.10;99.90
14170;DHT22;63889;50.596;8.690;2023-03-29T15:36:41;16.20;99.90
14170;DHT22;63889;50.596;8.690;2023-03-29T15:39:12;16.30;99.90
14170;DHT22;63889;50.596;8.690;2023-03-29T15:41:39;16.30;99.90
14170;DHT22;63889;50.596;8.690;2023-03-29T15:44:05;16.40;99.90
14170;DHT22;63889;50.596;8.690;2023-03-29T15:46:30;16.30;99.90
14170;DHT22;63889;50.596;8.690;2023-03-29T15:48:57;16.20;99.90
14170;DHT22;63889;50.596;8.690;2023-03-29T15:51:22;16.20;99.90
14170;DHT22;63889;50.596;8.690;2023-03-29T15:53:48;16.10;99.90
14170;DHT22;63889;50.596;8.690;2023-03-29T15:56:16;16.10;99.90
14170;DHT22;63889;50.596;8.690;2023-03-29T15:58:42;16.20;99.90
14170;DHT22;63889;50.596;8.690;2023-03-29T16:04:03;16.20;99.90
14170;DHT22;63889;50.596;8.690;2023-03-29T16:06:30;16.10;99.90
14170;DHT22;63889;50.596;8.690;2023-03-29T16:08:56;15.90;99.90
14170;DHT22;63889;50.596;8.690;2023-03-29T16:11:21;15.80;99.90
14170;DHT22;63889;50.596;8.690;2023-03-29T16:13:48;15.80;99.90
14170;DHT22;63889;50.596;8.690;2023-03-29T16:16:13;15.80;99.90
14170;DHT22;63889;50.596;8.690;2023-03-29T16:18:39;15.80;99.90
14170;DHT22;63889;50.596;8.690;2023-03-29T16:21:05;15.80;99.90
14170;DHT22;63889;50.596;8.690;2023-03-29T16:23:31;15.80;99.90
14170;DHT22;63889;50.596;8.690;2023-03-29T16:25:56;15.90;99.90
14170;DHT22;63889;50.596;8.690;2023-03-29T16:28:23;15.70;99.90
14170;DHT22;63889;50.596;8.690;2023-03-29T16:30:49;15.50;99.90
14170;DHT22;63889;50.596;8.690;2023-03-29T16:33:15;15.30;99.90
14170;DHT22;63889;50.596;8.690;2023-03-29T16:35:41;15.20;99.90
14170;DHT22;63889;50.596;8.690;2023-03-29T16:38:07;15.10;99.90
14170;DHT22;63889;50.596;8.690;2023-03-29T16:40:33;15.20;99.90
14170;DHT22;63889;50.596;8.690;2023-03-29T16:42:59;15.30;99.90
14170;DHT22;63889;50.596;8.690;2023-03-29T16:45:25;15.10;99.90
14170;DHT22;63889;50.596;8.690;2023-03-29T16:47:51;15.10;99.90
14170;DHT22;63889;50.596;8.690;2023-03-29T16:50:18;15.20;99.90
14170;DHT22;63889;50.596;8.690;2023-03-29T16:52:45;15.20;99.90
14170;DHT22;63889;50.596;8.690;2023-03-29T16:55:12;15.10;99.90
14170;DHT22;63889;50.596;8.690;2023-03-29T16:57:39;15.10;99.90
14170;DHT22;63889;50.596;8.690;2023-03-29T17:00:07;15.10;99.90
14170;DHT22;63889;50.596;8.690;2023-03-29T17:02:35;15.00;99.90
14170;DHT22;63889;50.596;8.690;2023-03-29T17:05:00;15.00;99.90
14170;DHT22;63889;50.596;8.690;2023-03-29T17:07:26;14.90;99.90
14170;DHT22;63889;50.596;8.690;2023-03-29T17:09:51;14.90;99.90
14170;DHT22;63889;50.596;8.690;2023-03-29T17:12:17;15.00;99.90
14170;DHT22;63889;50.596;8.690;2023-03-29T17:14:44;14.90;99.90
14170;DHT22;63889;50.596;8.690;2023-03-29T17:17:10;14.90;99.90
14170;DHT22;63889;50.596;8.690;2023-03-29T17:19:35;14.90;99.90
14170;DHT22;63889;50.596;8.690;2023-03-29T17:22:01;14.90;99.90
14170;DHT22;63889;50.596;8.690;2023-03-29T17:24:26;14.80;99.90
14170;DHT22;63889;50.596;8.690;2023-03-29T17:26:52;14.90;99.90
14170;DHT22;63889;50.596;8.690;2023-03-29T17:29:17;14.70;99.90
14170;DHT22;63889;50.596;8.690;2023-03-29T17:31:43;14.60;99.90